createdAt,value
2017-07-26T00:00:51.758Z,12.4
2017-07-26T00:01:51.004Z,12.38
2017-07-26T00:02:50.976Z,12.29
2017-07-26T00:03:50.970Z,12.38
2017-07-26T00:04:51.335Z,12.38
2017-07-26T00:05:51.960Z,12.28
2017-07-26T00:06:52.082Z,12.18
2017-07-26T00:07:51.024Z,12.16
2017-07-26T00:08:51.255Z,12.22
2017-07-26T00:09:51.940Z,12.19
2017-07-26T00:10:51.408Z,12.2
2017-07-26T00:11:51.236Z,12.16
2017-07-26T00:12:51.244Z,12.16
2017-07-26T00:13:51.216Z,12.16
2017-07-26T00:14:51.960Z,12.11
2017-07-26T00:15:51.240Z,12.07
2017-07-26T00:16:50.894Z,12.08
2017-07-26T00:17:51.208Z,12.01
2017-07-26T00:18:51.578Z,12.05
2017-07-26T00:19:51.336Z,12.05
2017-07-26T00:20:51.171Z,12.04
2017-07-26T00:21:51.160Z,12
2017-07-26T00:22:51.188Z,12.07
2017-07-26T00:23:51.919Z,12.05
2017-07-26T00:24:50.868Z,11.98
2017-07-26T00:25:51.156Z,12.03
2017-07-26T00:26:50.840Z,12.04
2017-07-26T00:27:51.395Z,12.05
2017-07-26T00:28:50.471Z,12.08
2017-07-26T00:29:50.788Z,12.04
2017-07-26T00:30:51.134Z,12.08
2017-07-26T00:31:51.128Z,12.07
2017-07-26T00:32:51.571Z,12.04
2017-07-26T00:33:50.433Z,12.1
2017-07-26T00:34:50.785Z,12.07
2017-07-26T00:35:51.070Z,12.1
2017-07-26T00:36:51.074Z,12.03
2017-07-26T00:37:51.414Z,12.13
2017-07-26T00:38:51.858Z,12.04
2017-07-26T00:39:50.727Z,12.04
2017-07-26T00:40:50.762Z,12
2017-07-26T00:41:50.700Z,12
2017-07-26T00:42:51.280Z,12
2017-07-26T00:43:51.350Z,11.97
2017-07-26T00:44:50.682Z,11.91
2017-07-26T00:45:51.000Z,11.86
2017-07-26T00:46:51.055Z,11.76
2017-07-26T00:47:51.088Z,11.78
2017-07-26T00:48:50.971Z,11.68
2017-07-26T00:49:50.968Z,11.63
2017-07-26T00:50:50.637Z,11.71
2017-07-26T00:51:50.954Z,11.75
2017-07-26T00:52:50.939Z,11.61
2017-07-26T00:53:51.822Z,11.59
2017-07-26T00:54:51.425Z,11.64
2017-07-26T00:55:50.931Z,11.6
2017-07-26T00:56:50.278Z,11.66
2017-07-26T00:57:50.902Z,11.6
2017-07-26T00:58:50.597Z,11.53
2017-07-26T00:59:50.494Z,11.57
2017-07-26T01:00:51.142Z,11.59
2017-07-26T01:01:50.890Z,11.52
2017-07-26T01:02:50.225Z,11.53
2017-07-26T01:03:50.892Z,11.45
2017-07-26T01:04:50.539Z,11.35
2017-07-26T01:05:50.848Z,11.39
2017-07-26T01:06:50.196Z,11.35
2017-07-26T01:07:50.830Z,11.27
2017-07-26T01:08:50.179Z,11.24
2017-07-26T01:09:50.833Z,11.23
2017-07-26T01:10:50.511Z,11.2
2017-07-26T01:11:50.804Z,11.26
2017-07-26T01:12:50.151Z,11.24
2017-07-26T01:13:50.474Z,11.31
2017-07-26T01:14:50.478Z,11.3
2017-07-26T01:15:50.775Z,11.28
2017-07-26T01:16:50.466Z,11.26
2017-07-26T01:17:50.773Z,11.3
2017-07-26T01:18:50.449Z,11.3
2017-07-26T01:19:50.418Z,11.31
2017-07-26T01:20:50.420Z,11.33
2017-07-26T01:21:50.424Z,11.41
2017-07-26T01:22:50.717Z,11.39
2017-07-26T01:23:50.707Z,11.49
2017-07-26T01:24:50.717Z,11.39
2017-07-26T01:25:50.704Z,11.51
2017-07-26T01:26:50.366Z,11.56
2017-07-26T01:27:50.693Z,11.52
2017-07-26T01:28:50.370Z,11.48
2017-07-26T01:29:50.020Z,11.59
2017-07-26T01:30:50.659Z,11.61
2017-07-26T01:31:50.661Z,11.59
2017-07-26T01:32:50.661Z,11.6
2017-07-26T01:33:50.647Z,11.6
2017-07-26T01:34:50.692Z,11.57
2017-07-26T01:35:50.617Z,11.66
2017-07-26T01:36:50.302Z,11.64
2017-07-26T01:37:50.281Z,11.66
2017-07-26T01:38:50.597Z,11.76
2017-07-26T01:39:50.608Z,11.68
2017-07-26T01:40:50.586Z,11.68
2017-07-26T01:41:50.247Z,11.7
2017-07-26T01:42:50.590Z,11.66
2017-07-26T01:43:50.251Z,11.79
2017-07-26T01:44:50.549Z,11.71
2017-07-26T01:45:50.566Z,11.84
2017-07-26T01:46:50.218Z,11.76
2017-07-26T01:47:50.539Z,11.79
2017-07-26T01:48:50.223Z,11.82
2017-07-26T01:49:50.202Z,11.85
2017-07-26T01:50:50.196Z,11.89
2017-07-26T01:51:50.548Z,11.88
2017-07-26T01:52:50.492Z,12
2017-07-26T01:53:50.483Z,11.97
2017-07-26T01:54:50.157Z,12.04
2017-07-26T01:55:50.149Z,12
2017-07-26T01:56:50.473Z,12
2017-07-26T01:57:50.450Z,12
2017-07-26T01:58:50.465Z,12.07
2017-07-26T01:59:50.142Z,12.08
2017-07-26T02:00:50.453Z,12.16
2017-07-26T02:01:50.428Z,12.1
2017-07-26T02:02:50.104Z,12.13
2017-07-26T02:03:50.103Z,12.13
2017-07-26T02:04:50.402Z,12.13
2017-07-26T02:05:50.428Z,12.19
2017-07-26T02:06:50.385Z,12.16
2017-07-26T02:07:50.399Z,12.2
2017-07-26T02:08:50.051Z,12.22
2017-07-26T02:09:50.397Z,12.16
2017-07-26T02:10:50.051Z,12.25
2017-07-26T02:11:50.357Z,12.23
2017-07-26T02:12:50.059Z,12.22
2017-07-26T02:13:50.351Z,12.2
2017-07-26T02:14:50.353Z,12.2
2017-07-26T02:15:50.323Z,12.2
2017-07-26T02:16:50.003Z,12.25
2017-07-26T02:17:50.324Z,12.25
2017-07-26T02:18:50.301Z,12.25
2017-07-26T02:19:49.651Z,12.22
2017-07-26T02:20:49.965Z,12.25
2017-07-26T02:21:50.275Z,12.22
2017-07-26T02:22:49.950Z,12.2
2017-07-26T02:23:50.282Z,12.16
2017-07-26T02:24:49.937Z,12.36
2017-07-26T02:25:50.277Z,12.31
2017-07-26T02:26:50.241Z,12.29
2017-07-26T02:27:49.612Z,12.33
2017-07-26T02:28:49.907Z,12.36
2017-07-26T02:29:49.911Z,12.29
2017-07-26T02:30:49.892Z,12.4
2017-07-26T02:31:49.882Z,12.38
2017-07-26T02:32:50.230Z,12.33
2017-07-26T02:33:49.874Z,12.34
2017-07-26T02:34:50.222Z,12.31
2017-07-26T02:35:49.536Z,12.29
2017-07-26T02:36:50.170Z,12.28
2017-07-26T02:37:49.842Z,12.29
2017-07-26T02:38:49.512Z,12.31
2017-07-26T02:39:49.849Z,12.18
2017-07-26T02:40:50.157Z,12.29
2017-07-26T02:41:49.813Z,12.22
2017-07-26T02:42:49.519Z,12.2
2017-07-26T02:43:49.812Z,12.22
2017-07-26T02:44:50.114Z,12.22
2017-07-26T02:45:50.108Z,12.19
2017-07-26T02:46:50.123Z,12.2
2017-07-26T02:47:50.096Z,12.2
2017-07-26T02:48:49.854Z,12.25
2017-07-26T02:49:50.081Z,12.18
2017-07-26T02:50:49.788Z,12.22
2017-07-26T02:51:49.747Z,12.2
2017-07-26T02:52:49.738Z,12.2
2017-07-26T02:53:49.754Z,12.36
2017-07-26T02:54:50.063Z,12.28
2017-07-26T02:55:50.037Z,12.28
2017-07-26T02:56:49.707Z,12.18
2017-07-26T02:57:50.038Z,12.36
2017-07-26T02:58:50.016Z,12.2
2017-07-26T02:59:49.688Z,12.4
2017-07-26T03:00:49.678Z,12.26
2017-07-26T03:01:49.357Z,12.26
2017-07-26T03:02:49.343Z,12.19
2017-07-26T03:03:49.709Z,12.29
2017-07-26T03:04:49.653Z,12.19
2017-07-26T03:05:49.966Z,12.29
2017-07-26T03:06:49.958Z,12.22
2017-07-26T03:07:49.953Z,12.28
2017-07-26T03:08:49.947Z,12.2
2017-07-26T03:09:49.961Z,12.22
2017-07-26T03:10:49.614Z,12.25
2017-07-26T03:11:49.929Z,12.2
2017-07-26T03:12:49.920Z,12.22
2017-07-26T03:13:49.594Z,12.22
2017-07-26T03:14:49.927Z,12.22
2017-07-26T03:15:49.895Z,12.18
2017-07-26T03:16:49.571Z,12.2
2017-07-26T03:17:49.883Z,12.19
2017-07-26T03:18:49.559Z,12.16
2017-07-26T03:19:49.873Z,12.19
2017-07-26T03:20:49.861Z,12.18
2017-07-26T03:21:49.529Z,12.22
2017-07-26T03:22:49.523Z,12.22
2017-07-26T03:23:49.844Z,12.19
2017-07-26T03:24:49.830Z,12.2
2017-07-26T03:25:49.824Z,12.18
2017-07-26T03:26:49.869Z,12.22
2017-07-26T03:27:49.809Z,12.28
2017-07-26T03:28:49.489Z,12.26
2017-07-26T03:29:49.806Z,12.22
2017-07-26T03:30:49.797Z,12.23
2017-07-26T03:31:49.779Z,12.22
2017-07-26T03:32:49.779Z,12.19
2017-07-26T03:33:49.767Z,12.25
2017-07-26T03:34:49.778Z,12.22
2017-07-26T03:35:49.431Z,12.22
2017-07-26T03:36:49.428Z,12.22
2017-07-26T03:37:49.759Z,12.26
2017-07-26T03:38:49.731Z,12.22
2017-07-26T03:39:49.420Z,12.22
2017-07-26T03:40:49.394Z,12.22
2017-07-26T03:41:49.708Z,12.22
2017-07-26T03:42:49.379Z,12.22
2017-07-26T03:43:49.372Z,12.22
2017-07-26T03:44:49.686Z,12.26
2017-07-26T03:45:49.687Z,12.18
2017-07-26T03:46:49.350Z,12.31
2017-07-26T03:47:49.043Z,12.23
2017-07-26T03:48:49.672Z,12.22
2017-07-26T03:49:49.678Z,12.23
2017-07-26T03:50:49.684Z,12.28
2017-07-26T03:51:49.636Z,12.22
2017-07-26T03:52:49.661Z,12.23
2017-07-26T03:53:49.299Z,12.25
2017-07-26T03:54:49.628Z,12.23
2017-07-26T03:55:49.328Z,12.23
2017-07-26T03:56:49.284Z,12.2
2017-07-26T03:57:49.285Z,12.22
2017-07-26T03:58:49.587Z,12.23
2017-07-26T03:59:49.258Z,12.25
2017-07-26T04:00:49.251Z,12.23
2017-07-26T04:01:49.567Z,12.25
2017-07-26T04:02:49.240Z,12.31
2017-07-26T04:03:49.557Z,12.31
2017-07-26T04:04:49.241Z,12.2
2017-07-26T04:05:49.535Z,12.36
2017-07-26T04:06:49.525Z,12.38
2017-07-26T04:07:49.558Z,12.28
2017-07-26T04:08:49.191Z,12.29
2017-07-26T04:09:49.183Z,12.34
2017-07-26T04:10:49.532Z,12.29
2017-07-26T04:11:49.495Z,12.18
2017-07-26T04:12:49.484Z,12.28
2017-07-26T04:13:49.156Z,12.28
2017-07-26T04:14:49.496Z,12.2
2017-07-26T04:15:49.141Z,12.31
2017-07-26T04:16:48.827Z,12.26
2017-07-26T04:17:49.148Z,12.29
2017-07-26T04:18:49.460Z,12.29
2017-07-26T04:19:49.437Z,12.28
2017-07-26T04:20:49.437Z,12.29
2017-07-26T04:21:49.115Z,12.29
2017-07-26T04:22:49.414Z,12.29
2017-07-26T04:23:49.109Z,12.31
2017-07-26T04:24:49.075Z,12.23
2017-07-26T04:25:48.750Z,12.36
2017-07-26T04:26:49.084Z,12.29
2017-07-26T04:27:49.383Z,12.28
2017-07-26T04:28:49.372Z,12.34
2017-07-26T04:29:49.365Z,12.25
2017-07-26T04:30:49.048Z,12.31
2017-07-26T04:31:49.348Z,12.23
2017-07-26T04:32:49.336Z,12.36
2017-07-26T04:33:49.022Z,12.2
2017-07-26T04:34:49.337Z,12.34
2017-07-26T04:35:49.319Z,12.23
2017-07-26T04:36:49.013Z,12.34
2017-07-26T04:37:48.979Z,12.29
2017-07-26T04:38:49.295Z,12.31
2017-07-26T04:39:49.287Z,12.34
2017-07-26T04:40:48.965Z,12.28
2017-07-26T04:41:49.300Z,12.33
2017-07-26T04:42:49.263Z,12.38
2017-07-26T04:43:48.945Z,12.28
2017-07-26T04:44:48.928Z,12.31
2017-07-26T04:45:49.261Z,12.29
2017-07-26T04:46:49.237Z,12.38
2017-07-26T04:47:48.911Z,12.31
2017-07-26T04:48:49.229Z,12.29
2017-07-26T04:49:49.218Z,12.37
2017-07-26T04:50:48.893Z,12.31
2017-07-26T04:51:49.201Z,12.31
2017-07-26T04:52:48.917Z,12.28
2017-07-26T04:53:48.867Z,12.28
2017-07-26T04:54:48.855Z,12.29
2017-07-26T04:55:48.859Z,12.38
2017-07-26T04:56:48.898Z,12.29
2017-07-26T04:57:49.159Z,12.33
2017-07-26T04:58:48.834Z,12.37
2017-07-26T04:59:49.160Z,12.33
2017-07-26T05:00:48.832Z,12.38
2017-07-26T05:01:49.148Z,12.45
2017-07-26T05:02:49.128Z,12.44
2017-07-26T05:03:49.131Z,12.45
2017-07-26T05:04:48.481Z,12.41
2017-07-26T05:05:48.778Z,12.43
2017-07-26T05:06:48.454Z,12.52
2017-07-26T05:07:48.783Z,12.55
2017-07-26T05:08:48.755Z,12.47
2017-07-26T05:09:48.784Z,12.56
2017-07-26T05:10:49.061Z,12.65
2017-07-26T05:11:49.082Z,12.63
2017-07-26T05:12:48.412Z,12.74
2017-07-26T05:13:49.056Z,12.74
2017-07-26T05:14:49.033Z,12.74
2017-07-26T05:15:49.064Z,12.69
2017-07-26T05:16:48.700Z,12.77
2017-07-26T05:17:49.011Z,12.8
2017-07-26T05:18:49.009Z,12.81
2017-07-26T05:19:48.676Z,12.86
2017-07-26T05:20:48.998Z,12.86
2017-07-26T05:21:48.672Z,12.84
2017-07-26T05:22:48.980Z,12.86
2017-07-26T05:23:48.326Z,12.92
2017-07-26T05:24:48.977Z,12.98
2017-07-26T05:25:48.955Z,12.95
2017-07-26T05:26:48.966Z,12.94
2017-07-26T05:27:48.623Z,12.95
2017-07-26T05:28:48.946Z,13.02
2017-07-26T05:29:48.288Z,12.95
2017-07-26T05:30:48.941Z,13.1
2017-07-26T05:31:48.596Z,13.16
2017-07-26T05:32:48.926Z,13.09
2017-07-26T05:33:48.583Z,13.06
2017-07-26T05:34:48.937Z,13.09
2017-07-26T05:35:48.889Z,13.13
2017-07-26T05:36:48.561Z,13.09
2017-07-26T05:37:48.877Z,13.2
2017-07-26T05:38:48.567Z,13.09
2017-07-26T05:39:48.885Z,13.13
2017-07-26T05:40:48.864Z,13.14
2017-07-26T05:41:48.206Z,13.2
2017-07-26T05:42:48.523Z,13.35
2017-07-26T05:43:48.845Z,13.37
2017-07-26T05:44:48.721Z,13.37
2017-07-26T05:45:48.828Z,13.44
2017-07-26T05:46:48.814Z,13.55
2017-07-26T05:47:48.814Z,13.47
2017-07-26T05:48:48.804Z,13.54
2017-07-26T05:49:48.810Z,13.55
2017-07-26T05:50:48.792Z,13.55
2017-07-26T05:51:48.464Z,13.73
2017-07-26T05:52:48.452Z,13.7
2017-07-26T05:53:48.770Z,13.72
2017-07-26T05:54:48.464Z,13.79
2017-07-26T05:55:48.119Z,13.69
2017-07-26T05:56:48.452Z,13.69
2017-07-26T05:57:48.747Z,13.72
2017-07-26T05:58:48.738Z,13.68
2017-07-26T05:59:48.411Z,13.69
2017-07-26T06:00:48.727Z,13.75
2017-07-26T06:01:48.403Z,13.87
2017-07-26T06:02:48.391Z,13.93
2017-07-26T06:03:48.707Z,14.01
2017-07-26T06:04:48.395Z,14.13
2017-07-26T06:05:48.053Z,14.24
2017-07-26T06:06:48.401Z,14.26
2017-07-26T06:07:48.705Z,14.36
2017-07-26T06:08:48.364Z,14.41
2017-07-26T06:09:48.371Z,14.48
2017-07-26T06:10:48.663Z,14.49
2017-07-26T06:11:48.658Z,14.51
2017-07-26T06:12:48.674Z,14.56
2017-07-26T06:13:48.669Z,14.61
2017-07-26T06:14:48.675Z,14.67
2017-07-26T06:15:48.335Z,14.46
2017-07-26T06:16:48.665Z,14.51
2017-07-26T06:17:48.643Z,14.57
2017-07-26T06:18:48.299Z,14.51
2017-07-26T06:19:48.618Z,14.51
2017-07-26T06:20:48.619Z,14.48
2017-07-26T06:21:48.285Z,14.48
2017-07-26T06:22:48.282Z,14.44
2017-07-26T06:23:48.293Z,14.45
2017-07-26T06:24:48.592Z,14.45
2017-07-26T06:25:48.581Z,14.46
2017-07-26T06:26:48.274Z,14.61
2017-07-26T06:27:48.251Z,14.67
2017-07-26T06:28:48.575Z,14.83
2017-07-26T06:29:48.592Z,14.93
2017-07-26T06:30:48.569Z,15.12
2017-07-26T06:31:47.913Z,15.07
2017-07-26T06:32:48.568Z,15.19
2017-07-26T06:33:48.558Z,15.22
2017-07-26T06:34:48.216Z,15.27
2017-07-26T06:35:48.530Z,15.2
2017-07-26T06:36:48.210Z,15.15
2017-07-26T06:37:48.202Z,15.23
2017-07-26T06:38:48.518Z,15.15
2017-07-26T06:39:48.557Z,15.01
2017-07-26T06:40:48.205Z,15.12
2017-07-26T06:41:48.508Z,15.2
2017-07-26T06:42:48.510Z,15.12
2017-07-26T06:43:48.522Z,15.23
2017-07-26T06:44:48.515Z,15.23
2017-07-26T06:45:48.168Z,15.02
2017-07-26T06:46:48.476Z,15.01
2017-07-26T06:47:48.476Z,14.85
2017-07-26T06:48:48.686Z,14.69
2017-07-26T06:49:48.464Z,14.75
2017-07-26T06:50:48.133Z,14.71
2017-07-26T06:51:48.454Z,14.6
2017-07-26T06:52:48.467Z,14.57
2017-07-26T06:53:48.470Z,14.49
2017-07-26T06:54:48.449Z,14.48
2017-07-26T06:55:48.474Z,14.46
2017-07-26T06:56:48.133Z,14.46
2017-07-26T06:57:48.438Z,14.46
2017-07-26T06:58:48.418Z,14.39
2017-07-26T06:59:48.107Z,14.44
2017-07-26T07:00:48.086Z,14.3
2017-07-26T07:01:47.774Z,14.3
2017-07-26T07:02:48.074Z,14.26
2017-07-26T07:03:48.067Z,14.24
2017-07-26T07:04:48.070Z,14.21
2017-07-26T07:05:48.067Z,14.27
2017-07-26T07:06:48.374Z,14.11
2017-07-26T07:07:47.725Z,14.08
2017-07-26T07:08:48.380Z,14.12
2017-07-26T07:09:47.717Z,14.08
2017-07-26T07:10:48.039Z,14.08
2017-07-26T07:11:48.040Z,14.11
2017-07-26T07:12:47.703Z,14.23
2017-07-26T07:13:48.354Z,14.2
2017-07-26T07:14:48.332Z,14.28
2017-07-26T07:15:48.010Z,14.23
2017-07-26T07:16:48.323Z,14.11
2017-07-26T07:17:48.317Z,14.09
2017-07-26T07:18:48.319Z,14.08
2017-07-26T07:19:47.993Z,14.09
2017-07-26T07:20:48.331Z,14.12
2017-07-26T07:21:48.313Z,14.12
2017-07-26T07:22:47.662Z,14.09
2017-07-26T07:23:47.967Z,14.08
2017-07-26T07:24:48.286Z,14.09
2017-07-26T07:25:48.305Z,14.15
2017-07-26T07:26:47.948Z,14.08
2017-07-26T07:27:48.277Z,14.05
2017-07-26T07:28:47.938Z,14.15
2017-07-26T07:29:48.267Z,14.21
2017-07-26T07:30:48.268Z,14.26
2017-07-26T07:31:48.245Z,14.26
2017-07-26T07:32:48.253Z,14.16
2017-07-26T07:33:48.232Z,14.19
2017-07-26T07:34:48.221Z,14.36
2017-07-26T07:35:47.895Z,14.28
2017-07-26T07:36:47.569Z,14.38
2017-07-26T07:37:48.207Z,14.53
2017-07-26T07:38:47.585Z,14.52
2017-07-26T07:39:47.873Z,14.48
2017-07-26T07:41:00.960Z,14.51
2017-07-26T07:41:47.869Z,14.53
2017-07-26T07:42:48.193Z,14.56
2017-07-26T07:43:47.882Z,14.48
2017-07-26T07:44:48.197Z,14.51
2017-07-26T07:45:47.868Z,14.63
2017-07-26T07:46:48.175Z,14.6
2017-07-26T07:47:48.198Z,14.63
2017-07-26T07:48:48.147Z,14.75
2017-07-26T07:49:48.143Z,14.83
2017-07-26T07:50:48.160Z,15.05
2017-07-26T07:51:48.143Z,15.15
2017-07-26T07:52:48.132Z,15.22
2017-07-26T07:53:48.127Z,15.22
2017-07-26T07:54:47.482Z,15.31
2017-07-26T07:55:47.822Z,15.35
2017-07-26T07:56:47.803Z,15.35
2017-07-26T07:57:48.123Z,15.38
2017-07-26T07:58:47.778Z,15.4
2017-07-26T07:59:48.096Z,15.34
2017-07-26T08:00:48.103Z,15.31
2017-07-26T08:01:48.093Z,15.37
2017-07-26T08:02:48.094Z,15.33
2017-07-26T08:03:47.763Z,15.2
2017-07-26T08:04:47.754Z,15.2
2017-07-26T08:05:48.070Z,15.23
2017-07-26T08:06:47.745Z,15.12
2017-07-26T08:07:47.766Z,15.12
2017-07-26T08:08:48.083Z,15.25
2017-07-26T08:09:48.067Z,15.2
2017-07-26T08:10:48.041Z,15.25
2017-07-26T08:11:47.731Z,15.25
2017-07-26T08:12:48.038Z,15.26
2017-07-26T08:13:48.023Z,15.34
2017-07-26T08:14:48.044Z,15.35
2017-07-26T08:15:48.018Z,15.37
2017-07-26T08:16:48.012Z,15.38
2017-07-26T08:17:47.689Z,15.27
2017-07-26T08:18:48.006Z,15.41
2017-07-26T08:19:47.371Z,15.3
2017-07-26T08:20:47.996Z,15.31
2017-07-26T08:21:47.677Z,15.41
2017-07-26T08:22:47.992Z,15.43
2017-07-26T08:23:47.349Z,15.52
2017-07-26T08:24:47.340Z,15.59
2017-07-26T08:25:47.993Z,15.63
2017-07-26T08:26:47.969Z,15.77
2017-07-26T08:27:47.961Z,15.84
2017-07-26T08:28:47.965Z,15.91
2017-07-26T08:29:47.959Z,15.86
2017-07-26T08:30:47.950Z,15.74
2017-07-26T08:31:47.946Z,15.71
2017-07-26T08:32:47.621Z,15.7
2017-07-26T08:33:47.939Z,15.62
2017-07-26T08:34:47.934Z,15.47
2017-07-26T08:35:47.637Z,15.41
2017-07-26T08:36:47.605Z,15.37
2017-07-26T08:37:47.920Z,15.27
2017-07-26T08:38:47.612Z,15.25
2017-07-26T08:39:47.929Z,15.16
2017-07-26T08:40:47.904Z,15.18
2017-07-26T08:41:47.281Z,15.18
2017-07-26T08:42:47.915Z,15.16
2017-07-26T08:43:47.929Z,15.26
2017-07-26T08:44:47.934Z,15.25
2017-07-26T08:45:47.913Z,15.23
2017-07-26T08:46:47.900Z,15.25
2017-07-26T08:47:47.565Z,15.2
2017-07-26T08:48:47.570Z,15.43
2017-07-26T08:49:47.551Z,15.31
2017-07-26T08:50:47.865Z,15.38
2017-07-26T08:51:47.907Z,15.41
2017-07-26T08:52:47.861Z,15.55
2017-07-26T08:53:47.536Z,15.63
2017-07-26T08:54:47.870Z,15.63
2017-07-26T08:55:47.525Z,15.55
2017-07-26T08:56:47.547Z,15.53
2017-07-26T08:57:47.832Z,15.65
2017-07-26T08:58:47.863Z,15.62
2017-07-26T08:59:47.840Z,15.73
2017-07-26T09:00:47.838Z,15.83
2017-07-26T09:01:47.827Z,15.86
2017-07-26T09:02:47.821Z,15.95
2017-07-26T09:03:47.486Z,16.04
2017-07-26T09:04:47.831Z,15.95
2017-07-26T09:05:47.481Z,15.98
2017-07-26T09:06:47.474Z,15.99
2017-07-26T09:07:47.789Z,16.02
2017-07-26T09:08:47.469Z,16.06
2017-07-26T09:09:47.779Z,15.89
2017-07-26T09:10:47.781Z,15.93
2017-07-26T09:11:47.776Z,16.07
2017-07-26T09:12:47.784Z,16.06
2017-07-26T09:13:47.785Z,16.07
2017-07-26T09:14:47.652Z,16.14
2017-07-26T09:15:47.436Z,16.25
2017-07-26T09:16:47.467Z,16.16
2017-07-26T09:17:47.424Z,16.21
2017-07-26T09:18:47.424Z,16.13
2017-07-26T09:19:47.743Z,16.17
2017-07-26T09:20:47.414Z,16.18
2017-07-26T09:21:47.733Z,16.27
2017-07-26T09:22:47.750Z,16.51
2017-07-26T09:23:47.079Z,16.67
2017-07-26T09:24:47.719Z,16.85
2017-07-26T09:25:47.754Z,16.91
2017-07-26T09:26:47.726Z,16.94
2017-07-26T09:27:47.396Z,17.03
2017-07-26T09:28:47.402Z,17.02
2017-07-26T09:29:47.725Z,16.99
2017-07-26T09:30:47.703Z,16.95
2017-07-26T09:31:47.700Z,16.87
2017-07-26T09:32:47.378Z,16.85
2017-07-26T09:33:47.710Z,16.7
2017-07-26T09:34:47.375Z,16.59
2017-07-26T09:35:47.692Z,16.45
2017-07-26T09:36:47.391Z,16.44
2017-07-26T09:37:47.368Z,16.44
2017-07-26T09:38:47.667Z,16.32
2017-07-26T09:39:47.345Z,16.32
2017-07-26T09:40:47.342Z,16.25
2017-07-26T09:41:47.348Z,16.34
2017-07-26T09:42:47.678Z,16.3
2017-07-26T09:43:47.330Z,16.3
2017-07-26T09:44:47.653Z,16.42
2017-07-26T09:45:47.338Z,16.42
2017-07-26T09:46:47.334Z,16.45
2017-07-26T09:47:47.319Z,16.44
2017-07-26T09:48:47.635Z,16.62
2017-07-26T09:49:47.636Z,16.57
2017-07-26T09:50:47.636Z,16.69
2017-07-26T09:51:47.624Z,16.81
2017-07-26T09:52:47.006Z,16.8
2017-07-26T09:53:47.639Z,16.73
2017-07-26T09:54:47.326Z,16.77
2017-07-26T09:55:47.813Z,16.59
2017-07-26T09:56:47.294Z,16.51
2017-07-26T09:57:47.606Z,16.45
2017-07-26T09:58:47.633Z,16.36
2017-07-26T09:59:47.275Z,16.27
2017-07-26T10:00:47.590Z,16.29
2017-07-26T10:01:47.594Z,16.14
2017-07-26T10:02:47.586Z,16.08
2017-07-26T10:03:47.594Z,16
2017-07-26T10:04:47.576Z,15.89
2017-07-26T10:05:47.280Z,15.75
2017-07-26T10:06:47.583Z,15.62
2017-07-26T10:07:47.584Z,15.52
2017-07-26T10:08:47.245Z,15.43
2017-07-26T10:09:47.585Z,15.38
2017-07-26T10:10:47.272Z,15.27
2017-07-26T10:11:47.564Z,15.31
2017-07-26T10:12:47.560Z,15.19
2017-07-26T10:13:47.556Z,15.27
2017-07-26T10:14:47.540Z,15.01
2017-07-26T10:15:47.554Z,15.04
2017-07-26T10:16:47.552Z,15.04
2017-07-26T10:17:47.539Z,15.05
2017-07-26T10:18:47.223Z,15.1
2017-07-26T10:19:47.529Z,15
2017-07-26T10:20:47.517Z,15.02
2017-07-26T10:21:47.511Z,15.1
2017-07-26T10:22:47.503Z,15.08
2017-07-26T10:23:46.856Z,15.05
2017-07-26T10:24:47.172Z,15.2
2017-07-26T10:25:47.519Z,15.25
2017-07-26T10:26:46.862Z,15.3
2017-07-26T10:27:47.484Z,15.41
2017-07-26T10:28:47.486Z,15.58
2017-07-26T10:29:47.148Z,15.7
2017-07-26T10:30:47.146Z,15.73
2017-07-26T10:31:47.141Z,15.86
2017-07-26T10:32:47.140Z,16
2017-07-26T10:33:47.130Z,16.07
2017-07-26T10:34:47.458Z,16.04
2017-07-26T10:35:47.129Z,16.07
2017-07-26T10:36:47.477Z,16.25
2017-07-26T10:37:47.440Z,16.25
2017-07-26T10:38:47.436Z,16.25
2017-07-26T10:39:47.109Z,16.21
2017-07-26T10:40:47.106Z,16.25
2017-07-26T10:41:47.115Z,16.04
2017-07-26T10:42:46.838Z,16.07
2017-07-26T10:43:47.106Z,15.95
2017-07-26T10:44:47.408Z,15.89
2017-07-26T10:45:47.085Z,15.89
2017-07-26T10:46:47.435Z,15.75
2017-07-26T10:47:46.757Z,15.86
2017-07-26T10:48:47.071Z,15.8
2017-07-26T10:49:47.084Z,15.88
2017-07-26T10:50:47.063Z,15.88
2017-07-26T10:51:47.411Z,15.95
2017-07-26T10:52:47.056Z,15.84
2017-07-26T10:53:47.378Z,15.88
2017-07-26T10:54:47.367Z,15.91
2017-07-26T10:55:47.366Z,15.95
2017-07-26T10:56:47.365Z,15.89
2017-07-26T10:57:47.047Z,15.99
2017-07-26T10:58:47.404Z,15.93
2017-07-26T10:59:52.732Z,15.95
2017-07-26T11:00:47.361Z,15.99
2017-07-26T11:01:47.344Z,16.04
2017-07-26T11:02:47.028Z,16
2017-07-26T11:03:47.331Z,16.06
2017-07-26T11:04:47.007Z,15.98
2017-07-26T11:05:47.334Z,16.02
2017-07-26T11:06:47.328Z,16.02
2017-07-26T11:07:47.332Z,15.98
2017-07-26T11:08:47.321Z,15.91
2017-07-26T11:09:47.310Z,15.86
2017-07-26T11:10:47.329Z,15.93
2017-07-26T11:11:47.300Z,15.83
2017-07-26T11:12:47.295Z,15.86
2017-07-26T11:13:47.305Z,15.83
2017-07-26T11:14:47.290Z,15.88
2017-07-26T11:15:47.299Z,15.84
2017-07-26T11:16:47.276Z,15.88
2017-07-26T11:17:46.952Z,15.84
2017-07-26T11:18:46.646Z,15.92
2017-07-26T11:19:46.951Z,15.95
2017-07-26T11:20:46.944Z,16.02
2017-07-26T11:21:47.267Z,15.92
2017-07-26T11:22:46.937Z,16.08
2017-07-26T11:23:47.279Z,16.08
2017-07-26T11:24:47.247Z,16.06
2017-07-26T11:25:46.916Z,15.99
2017-07-26T11:26:47.237Z,15.99
2017-07-26T11:27:47.235Z,15.98
2017-07-26T11:28:47.250Z,15.8
2017-07-26T11:29:47.224Z,15.84
2017-07-26T11:30:47.264Z,15.91
2017-07-26T11:31:46.909Z,15.74
2017-07-26T11:32:47.214Z,15.75
2017-07-26T11:33:46.889Z,15.73
2017-07-26T11:34:46.908Z,15.74
2017-07-26T11:35:46.880Z,15.75
2017-07-26T11:36:46.776Z,15.77
2017-07-26T11:37:46.874Z,15.75
2017-07-26T11:38:47.187Z,15.8
2017-07-26T11:39:46.863Z,15.68
2017-07-26T11:40:47.181Z,15.67
2017-07-26T11:41:47.194Z,15.71
2017-07-26T11:42:47.181Z,15.68
2017-07-26T11:43:47.201Z,15.58
2017-07-26T11:44:47.175Z,15.62
2017-07-26T11:45:47.156Z,15.62
2017-07-26T11:46:46.831Z,15.67
2017-07-26T11:47:46.509Z,15.62
2017-07-26T11:48:47.168Z,15.67
2017-07-26T11:49:47.157Z,15.52
2017-07-26T11:50:47.159Z,15.52
2017-07-26T11:51:46.809Z,15.56
2017-07-26T11:52:46.820Z,15.52
2017-07-26T11:53:46.799Z,15.45
2017-07-26T11:54:47.121Z,15.47
2017-07-26T11:55:47.126Z,15.41
2017-07-26T11:56:46.475Z,15.49
2017-07-26T11:57:47.120Z,15.44
2017-07-26T11:58:46.784Z,15.49
2017-07-26T11:59:46.794Z,15.44
2017-07-26T12:00:55.938Z,15.41
2017-07-26T12:01:46.807Z,15.41
2017-07-26T12:02:47.080Z,15.43
2017-07-26T12:03:46.767Z,15.47
2017-07-26T12:04:46.760Z,15.45
2017-07-26T12:05:46.748Z,15.41
2017-07-26T12:06:46.743Z,15.4
2017-07-26T12:07:46.744Z,15.45
2017-07-26T12:08:46.733Z,15.35
2017-07-26T12:09:46.726Z,15.43
2017-07-26T12:10:46.726Z,15.3
2017-07-26T12:11:46.399Z,15.23
2017-07-26T12:12:46.411Z,15.25
2017-07-26T12:13:47.035Z,15.1
2017-07-26T12:14:46.706Z,15.12
2017-07-26T12:15:46.708Z,15.08
2017-07-26T12:16:47.018Z,15
2017-07-26T12:17:47.018Z,15
2017-07-26T12:18:47.010Z,15.01
2017-07-26T12:19:46.360Z,14.94
2017-07-26T12:20:47.004Z,14.94
2017-07-26T12:21:46.373Z,14.79
2017-07-26T12:22:46.989Z,14.71
2017-07-26T12:23:46.692Z,14.71
2017-07-26T12:24:46.660Z,14.69
2017-07-26T12:25:46.975Z,14.63
2017-07-26T12:26:46.699Z,14.51
2017-07-26T12:27:46.965Z,14.45
2017-07-26T12:28:46.317Z,14.41
2017-07-26T12:29:46.966Z,14.33
2017-07-26T12:30:46.632Z,14.31
2017-07-26T12:31:46.945Z,14.23
2017-07-26T12:32:46.626Z,14.2
2017-07-26T12:33:46.933Z,14.15
2017-07-26T12:34:46.954Z,14.11
2017-07-26T12:35:46.625Z,14.11
2017-07-26T12:36:46.924Z,14.09
2017-07-26T12:37:46.286Z,14.15
2017-07-26T12:38:46.584Z,14.15
2017-07-26T12:39:46.903Z,14.15
2017-07-26T12:40:46.913Z,14.12
2017-07-26T12:41:46.894Z,14.11
2017-07-26T12:42:46.244Z,14.09
2017-07-26T12:43:46.946Z,14.11
2017-07-26T12:44:46.888Z,14.11
2017-07-26T12:45:46.870Z,14.13
2017-07-26T12:46:46.873Z,14.13
2017-07-26T12:47:46.857Z,14.12
2017-07-26T12:48:46.851Z,14.16
2017-07-26T12:49:46.532Z,14.16
2017-07-26T12:50:46.197Z,14.13
2017-07-26T12:51:46.516Z,14.21
2017-07-26T12:52:46.507Z,14.23
2017-07-26T12:53:46.823Z,14.13
2017-07-26T12:54:46.177Z,14.15
2017-07-26T12:55:46.491Z,14.12
2017-07-26T12:56:46.830Z,14.08